sensor_id;sensor_type;location;lat;lon;timestamp;pressure;altitude;pressure_sealevel;temperature;humidity
25658;BME280;13517;59.320;18.042;2023-01-10T00:00:38;99781.59;;;0.87;100.00
25658;BME280;13517;59.320;18.042;2023-01-10T00:03:09;99795.44;;;0.95;100.00
25658;BME280;13517;59.320;18.042;2023-01-10T00:05:35;99797.41;;;0.90;100.00
25658;BME280;13517;59.320;18.042;2023-01-10T00:08:02;99802.91;;;0.86;100.00
25658;BME280;13517;59.320;18.042;2023-01-10T00:10:28;99780.09;;;0.80;100.00
25658;BME280;13517;59.320;18.042;2023-01-10T00:12:53;99769.94;;;0.67;100.00
25658;BME280;13517;59.320;18.042;2023-01-10T00:15:37;99758.44;;;0.67;100.00
25658;BME280;13517;59.320;18.042;2023-01-10T00:18:03;99780.09;;;0.80;100.00
25658;BME280;13517;59.320;18.042;2023-01-10T00:20:29;99781.94;;;0.78;100.00
25658;BME280;13517;59.320;18.042;2023-01-10T00:22:55;99782.63;;;0.83;100.00
25658;BME280;13517;59.320;18.042;2023-01-10T00:25:21;99750.78;;;0.59;100.00
25658;BME280;13517;59.320;18.042;2023-01-10T00:27:47;99781.94;;;0.78;100.00
25658;BME280;13517;59.320;18.042;2023-01-10T00:30:31;99786.03;;;0.87;100.00
25658;BME280;13517;59.320;18.042;2023-01-10T00:32:59;99757.22;;;0.76;100.00
25658;BME280;13517;59.320;18.042;2023-01-10T00:35:24;99777.25;;;0.85;100.00
25658;BME280;13517;59.320;18.042;2023-01-10T00:37:50;99759.06;;;0.74;100.00
25658;BME280;13517;59.320;18.042;2023-01-10T00:40:21;99740.91;;;0.63;100.00
25658;BME280;13517;59.320;18.042;2023-01-10T00:42:47;99773.06;;;0.79;100.00
25658;BME280;13517;59.320;18.042;2023-01-10T00:45:31;99758.38;;;0.68;100.00
25658;BME280;13517;59.320;18.042;2023-01-10T00:47:56;99775.97;;;0.73;100.00
25658;BME280;13517;59.320;18.042;2023-01-10T00:50:21;99770.81;;;0.68;100.00
25658;BME280;13517;59.320;18.042;2023-01-10T00:52:47;99747.44;;;0.54;100.00
25658;BME280;13517;59.320;18.042;2023-01-10T00:55:12;99748.97;;;0.60;100.00
25658;BME280;13517;59.320;18.042;2023-01-10T00:57:38;99775.81;;;0.76;100.00
25658;BME280;13517;59.320;18.042;2023-01-10T01:00:04;99757.81;;;0.60;100.00
25658;BME280;13517;59.320;18.042;2023-01-10T01:02:33;99783.38;;;0.64;100.00
25658;BME280;13517;59.320;18.042;2023-01-10T01:04:59;99754.09;;;0.42;100.00
25658;BME280;13517;59.320;18.042;2023-01-10T01:07:24;99720.34;;;0.22;100.00
25658;BME280;13517;59.320;18.042;2023-01-10T01:09:49;99781.69;;;0.62;100.00
25658;BME280;13517;59.320;18.042;2023-01-10T01:12:33;99761.88;;;0.47;100.00
25658;BME280;13517;59.320;18.042;2023-01-10T01:14:59;99761.19;;;0.42;100.00
25658;BME280;13517;59.320;18.042;2023-01-10T01:17:24;99798.31;;;0.67;100.00
25658;BME280;13517;59.320;18.042;2023-01-10T01:19:49;99791.22;;;0.67;100.00
25658;BME280;13517;59.320;18.042;2023-01-10T01:22:15;99787.63;;;0.68;100.00
25658;BME280;13517;59.320;18.042;2023-01-10T01:24:40;99798.16;;;0.72;100.00
25658;BME280;13517;59.320;18.042;2023-01-10T01:27:06;99786.94;;;0.63;100.00
25658;BME280;13517;59.320;18.042;2023-01-10T01:29:31;99802.66;;;0.70;100.00
25658;BME280;13517;59.320;18.042;2023-01-10T01:31:57;99785.16;;;0.64;100.00
25658;BME280;13517;59.320;18.042;2023-01-10T01:34:22;99802.31;;;0.79;100.00
25658;BME280;13517;59.320;18.042;2023-01-10T01:36:48;99763.13;;;0.60;100.00
25658;BME280;13517;59.320;18.042;2023-01-10T01:39:15;99782.31;;;0.68;100.00
25658;BME280;13517;59.320;18.042;2023-01-10T01:41:42;99800.44;;;0.81;100.00
25658;BME280;13517;59.320;18.042;2023-01-10T01:44:27;99803.16;;;0.79;100.00
25658;BME280;13517;59.320;18.042;2023-01-10T01:47:06;99767.53;;;0.61;100.00
25658;BME280;13517;59.320;18.042;2023-01-10T01:49:37;99767.66;;;0.58;100.00
25658;BME280;13517;59.320;18.042;2023-01-10T01:52:31;99794.25;;;0.80;100.00
25658;BME280;13517;59.320;18.042;2023-01-10T01:55:00;99785.66;;;0.74;100.00
25658;BME280;13517;59.320;18.042;2023-01-10T01:57:28;99774.38;;;0.67;100.00
25658;BME280;13517;59.320;18.042;2023-01-10T01:59:56;99790.94;;;0.75;100.00
25658;BME280;13517;59.320;18.042;2023-01-10T02:02:25;99773.63;;;0.63;100.00
25658;BME280;13517;59.320;18.042;2023-01-10T02:04:54;99799.00;;;0.72;100.00
25658;BME280;13517;59.320;18.042;2023-01-10T02:07:21;99789.59;;;0.63;100.00
25658;BME280;13517;59.320;18.042;2023-01-10T02:10:01;99774.00;;;0.54;100.00
25658;BME280;13517;59.320;18.042;2023-01-10T02:12:29;99791.34;;;0.64;100.00
25658;BME280;13517;59.320;18.042;2023-01-10T02:14:57;99808.78;;;0.72;100.00
25658;BME280;13517;59.320;18.042;2023-01-10T02:17:23;99791.34;;;0.64;100.00
25658;BME280;13517;59.320;18.042;2023-01-10T02:20:01;99796.41;;;0.71;100.00
25658;BME280;13517;59.320;18.042;2023-01-10T02:28:50;99808.66;;;0.75;100.00
25658;BME280;13517;59.320;18.042;2023-01-10T02:39:22;99795.56;;;0.70;100.00
25658;BME280;13517;59.320;18.042;2023-01-10T02:42:00;99791.91;;;0.73;100.00
25658;BME280;13517;59.320;18.042;2023-01-10T02:47:15;99787.44;;;0.73;100.00
25658;BME280;13517;59.320;18.042;2023-01-10T02:49:48;99797.78;;;0.81;100.00
25658;BME280;13517;59.320;18.042;2023-01-10T02:52:24;99798.63;;;0.81;100.00
25658;BME280;13517;59.320;18.042;2023-01-10T02:54:54;99768.31;;;0.63;100.00
25658;BME280;13517;59.320;18.042;2023-01-10T03:08:25;99796.53;;;0.67;100.00
25658;BME280;13517;59.320;18.042;2023-01-10T03:11:04;99790.47;;;0.64;100.00
25658;BME280;13517;59.320;18.042;2023-01-10T03:13:42;99761.84;;;0.48;100.00
25658;BME280;13517;59.320;18.042;2023-01-10T03:16:16;99762.34;;;0.58;100.00
25658;BME280;13517;59.320;18.042;2023-01-10T03:19:06;99716.56;;;0.28;100.00
25658;BME280;13517;59.320;18.042;2023-01-10T03:21:33;99763.13;;;0.60;100.00
25658;BME280;13517;59.320;18.042;2023-01-10T03:24:06;99741.38;;;0.50;100.00
25658;BME280;13517;59.320;18.042;2023-01-10T03:26:42;99763.94;;;0.62;100.00
25658;BME280;13517;59.320;18.042;2023-01-10T03:29:17;99751.94;;;0.52;100.00
25658;BME280;13517;59.320;18.042;2023-01-10T03:32:03;99777.22;;;0.62;100.00
25658;BME280;13517;59.320;18.042;2023-01-10T03:34:30;99772.75;;;0.64;100.00
25658;BME280;13517;59.320;18.042;2023-01-10T03:42:09;99757.31;;;0.50;100.00
25658;BME280;13517;59.320;18.042;2023-01-10T03:44:45;99780.44;;;0.71;100.00
25658;BME280;13517;59.320;18.042;2023-01-10T03:47:34;99791.09;;;0.71;100.00
25658;BME280;13517;59.320;18.042;2023-01-10T03:52:33;99791.97;;;0.71;100.00
25658;BME280;13517;59.320;18.042;2023-01-10T03:54:59;99758.00;;;0.56;100.00
25658;BME280;13517;59.320;18.042;2023-01-10T03:57:27;99775.28;;;0.67;100.00
25658;BME280;13517;59.320;18.042;2023-01-10T03:59:54;99796.84;;;0.82;100.00
25658;BME280;13517;59.320;18.042;2023-01-10T04:02:25;99789.34;;;0.70;100.00
25658;BME280;13517;59.320;18.042;2023-01-10T04:04:51;99789.25;;;0.73;100.00
25658;BME280;13517;59.320;18.042;2023-01-10T04:07:16;99790.09;;;0.73;100.00
25658;BME280;13517;59.320;18.042;2023-01-10T04:09:41;99798.22;;;0.70;100.00
25658;BME280;13517;59.320;18.042;2023-01-10T04:12:07;99785.91;;;0.67;100.00
25658;BME280;13517;59.320;18.042;2023-01-10T04:14:32;99752.75;;;0.54;100.00
25658;BME280;13517;59.320;18.042;2023-01-10T04:16:58;99720.25;;;0.23;100.00
25658;BME280;13517;59.320;18.042;2023-01-10T04:19:24;99809.34;;;0.80;100.00
25658;BME280;13517;59.320;18.042;2023-01-10T04:21:50;99819.09;;;0.79;100.00
25658;BME280;13517;59.320;18.042;2023-01-10T04:24:15;99752.06;;;0.49;100.00
25658;BME280;13517;59.320;18.042;2023-01-10T04:26:41;99785.75;;;0.71;100.00
25658;BME280;13517;59.320;18.042;2023-01-10T04:29:06;99813.59;;;0.84;100.00
25658;BME280;13517;59.320;18.042;2023-01-10T04:31:32;99797.00;;;0.79;100.00
25658;BME280;13517;59.320;18.042;2023-01-10T04:33:57;99800.31;;;0.84;100.00
25658;BME280;13517;59.320;18.042;2023-01-10T04:36:24;99752.28;;;0.66;100.00
25658;BME280;13517;59.320;18.042;2023-01-10T04:38:49;99776.63;;;0.78;100.00
25658;BME280;13517;59.320;18.042;2023-01-10T04:41:15;99801.47;;;1.01;100.00
25658;BME280;13517;59.320;18.042;2023-01-10T04:43:40;99799.66;;;1.01;100.00
25658;BME280;13517;59.320;18.042;2023-01-10T04:46:06;99795.19;;;1.02;100.00
25658;BME280;13517;59.320;18.042;2023-01-10T04:48:32;99801.31;;;1.04;100.00
25658;BME280;13517;59.320;18.042;2023-01-10T04:50:57;99770.72;;;0.93;100.00
25658;BME280;13517;59.320;18.042;2023-01-10T04:53:23;99775.91;;;0.97;100.00
25658;BME280;13517;59.320;18.042;2023-01-10T04:55:48;99776.69;;;0.99;100.00
25658;BME280;13517;59.320;18.042;2023-01-10T04:58:14;99796.56;;;1.12;100.00
25658;BME280;13517;59.320;18.042;2023-01-10T05:00:39;99794.13;;;1.06;100.00
25658;BME280;13517;59.320;18.042;2023-01-10T05:03:05;99776.69;;;0.99;100.00
25658;BME280;13517;59.320;18.042;2023-01-10T05:05:31;99782.69;;;1.04;100.00
25658;BME280;13517;59.320;18.042;2023-01-10T05:07:56;99763.53;;;0.95;100.00
25658;BME280;13517;59.320;18.042;2023-01-10T05:10:22;99777.53;;;1.01;100.00
25658;BME280;13517;59.320;18.042;2023-01-10T05:12:48;99781.66;;;1.08;100.00
25658;BME280;13517;59.320;18.042;2023-01-10T05:15:13;99773.72;;;1.06;100.00
25658;BME280;13517;59.320;18.042;2023-01-10T05:17:39;99776.34;;;1.08;100.00
25658;BME280;13517;59.320;18.042;2023-01-10T05:20:05;99752.75;;;0.99;100.00
25658;BME280;13517;59.320;18.042;2023-01-10T05:22:31;99790.50;;;1.31;100.00
25658;BME280;13517;59.320;18.042;2023-01-10T05:24:57;99789.75;;;1.27;100.00
25658;BME280;13517;59.320;18.042;2023-01-10T05:27:22;99780.09;;;1.25;100.00
25658;BME280;13517;59.320;18.042;2023-01-10T05:29:48;99795.56;;;1.37;100.00
25658;BME280;13517;59.320;18.042;2023-01-10T05:32:14;99776.88;;;1.16;100.00
25658;BME280;13517;59.320;18.042;2023-01-10T05:34:39;99777.72;;;1.17;100.00
25658;BME280;13517;59.320;18.042;2023-01-10T05:37:05;99794.75;;;1.35;100.00
25658;BME280;13517;59.320;18.042;2023-01-10T05:39:30;99808.47;;;1.46;100.00
25658;BME280;13517;59.320;18.042;2023-01-10T05:41:56;99813.75;;;1.48;100.00
25658;BME280;13517;59.320;18.042;2023-01-10T05:44:21;99805.22;;;1.40;100.00
25658;BME280;13517;59.320;18.042;2023-01-10T05:46:47;99814.72;;;1.45;100.00
25658;BME280;13517;59.320;18.042;2023-01-10T05:49:12;99779.97;;;1.28;100.00
25658;BME280;13517;59.320;18.042;2023-01-10T05:51:37;99790.34;;;1.34;100.00
25658;BME280;13517;59.320;18.042;2023-01-10T05:54:03;99820.47;;;1.57;100.00
25658;BME280;13517;59.320;18.042;2023-01-10T05:56:28;99776.00;;;1.38;100.00
25658;BME280;13517;59.320;18.042;2023-01-10T05:58:54;99797.56;;;1.53;100.00
25658;BME280;13517;59.320;18.042;2023-01-10T06:01:20;99802.09;;;1.51;100.00
25658;BME280;13517;59.320;18.042;2023-01-10T06:03:45;99792.75;;;1.40;100.00
25658;BME280;13517;59.320;18.042;2023-01-10T06:06:10;99796.63;;;1.54;100.00
25658;BME280;13517;59.320;18.042;2023-01-10T06:08:36;99808.75;;;1.61;100.00
25658;BME280;13517;59.320;18.042;2023-01-10T06:11:03;99815.53;;;1.68;100.00
25658;BME280;13517;59.320;18.042;2023-01-10T06:13:28;99799.97;;;1.59;100.00
25658;BME280;13517;59.320;18.042;2023-01-10T06:15:54;99784.13;;;1.56;100.00
25658;BME280;13517;59.320;18.042;2023-01-10T06:18:19;99805.97;;;1.64;100.00
25658;BME280;13517;59.320;18.042;2023-01-10T06:20:44;99821.41;;;1.76;100.00
25658;BME280;13517;59.320;18.042;2023-01-10T06:23:10;99832.69;;;1.83;100.00
25658;BME280;13517;59.320;18.042;2023-01-10T06:25:36;99790.06;;;1.62;100.00
25658;BME280;13517;59.320;18.042;2023-01-10T06:28:05;99818.47;;;1.83;100.00
25658;BME280;13517;59.320;18.042;2023-01-10T06:30:31;99837.75;;;1.89;100.00
25658;BME280;13517;59.320;18.042;2023-01-10T06:33:02;99765.69;;;1.51;100.00
25658;BME280;13517;59.320;18.042;2023-01-10T06:35:28;99850.06;;;1.92;100.00
25658;BME280;13517;59.320;18.042;2023-01-10T06:37:54;99793.41;;;1.68;100.00
25658;BME280;13517;59.320;18.042;2023-01-10T06:40:20;99837.41;;;1.97;100.00
25658;BME280;13517;59.320;18.042;2023-01-10T06:42:45;99842.59;;;2.00;100.00
25658;BME280;13517;59.320;18.042;2023-01-10T06:45:10;99781.03;;;1.67;100.00
25658;BME280;13517;59.320;18.042;2023-01-10T06:47:36;99846.06;;;2.02;100.00
25658;BME280;13517;59.320;18.042;2023-01-10T06:50:03;99814.88;;;1.84;100.00
25658;BME280;13517;59.320;18.042;2023-01-10T06:52:29;99849.41;;;2.08;100.00
25658;BME280;13517;59.320;18.042;2023-01-10T06:54:54;99832.69;;;2.04;100.00
25658;BME280;13517;59.320;18.042;2023-01-10T06:57:20;99816.34;;;1.91;100.00
25658;BME280;13517;59.320;18.042;2023-01-10T06:59:45;99825.94;;;1.95;100.00
25658;BME280;13517;59.320;18.042;2023-01-10T07:02:11;99866.91;;;2.13;100.00
25658;BME280;13517;59.320;18.042;2023-01-10T07:04:36;99844.13;;;2.06;100.00
25658;BME280;13517;59.320;18.042;2023-01-10T07:07:02;99829.19;;;2.02;100.00
25658;BME280;13517;59.320;18.042;2023-01-10T07:09:28;99806.78;;;1.87;100.00
25658;BME280;13517;59.320;18.042;2023-01-10T07:11:53;99843.81;;;2.14;100.00
25658;BME280;13517;59.320;18.042;2023-01-10T07:14:19;99844.84;;;2.10;100.00
25658;BME280;13517;59.320;18.042;2023-01-10T07:16:44;99871.69;;;2.26;100.00
25658;BME280;13517;59.320;18.042;2023-01-10T07:19:10;99852.59;;;2.16;100.00
25658;BME280;13517;59.320;18.042;2023-01-10T07:21:38;99829.34;;;1.99;100.00
25658;BME280;13517;59.320;18.042;2023-01-10T07:24:03;99868.31;;;2.22;100.00
25658;BME280;13517;59.320;18.042;2023-01-10T07:26:29;99877.09;;;2.24;100.00
25658;BME280;13517;59.320;18.042;2023-01-10T07:28:54;99837.28;;;2.00;100.00
25658;BME280;13517;59.320;18.042;2023-01-10T07:31:20;99899.75;;;2.35;100.00
25658;BME280;13517;59.320;18.042;2023-01-10T07:33:49;99896.00;;;2.39;100.00
25658;BME280;13517;59.320;18.042;2023-01-10T07:36:14;99891.19;;;2.26;100.00
25658;BME280;13517;59.320;18.042;2023-01-10T07:38:40;99836.75;;;1.92;100.00
25658;BME280;13517;59.320;18.042;2023-01-10T07:41:05;99911.94;;;2.40;100.00
25658;BME280;13517;59.320;18.042;2023-01-10T07:43:31;99920.78;;;2.41;100.00
25658;BME280;13517;59.320;18.042;2023-01-10T07:46:00;99917.22;;;2.42;100.00
25658;BME280;13517;59.320;18.042;2023-01-10T07:48:26;99897.41;;;2.27;100.00
25658;BME280;13517;59.320;18.042;2023-01-10T07:50:59;99882.94;;;2.12;100.00
25658;BME280;13517;59.320;18.042;2023-01-10T07:53:26;99921.19;;;2.31;100.00
25658;BME280;13517;59.320;18.042;2023-01-10T07:55:52;99945.72;;;2.40;100.00
25658;BME280;13517;59.320;18.042;2023-01-10T07:58:17;99946.66;;;2.39;100.00
25658;BME280;13517;59.320;18.042;2023-01-10T08:00:43;99933.72;;;2.29;100.00
25658;BME280;13517;59.320;18.042;2023-01-10T08:03:11;99953.59;;;2.43;100.00
25658;BME280;13517;59.320;18.042;2023-01-10T08:05:37;99949.06;;;2.45;100.00
25658;BME280;13517;59.320;18.042;2023-01-10T08:08:09;99957.84;;;2.47;100.00
25658;BME280;13517;59.320;18.042;2023-01-10T08:10:36;99930.28;;;2.27;100.00
25658;BME280;13517;59.320;18.042;2023-01-10T08:13:01;99941.72;;;2.29;100.00
25658;BME280;13517;59.320;18.042;2023-01-10T08:15:27;99944.19;;;2.34;100.00
25658;BME280;13517;59.320;18.042;2023-01-10T08:17:53;99951.31;;;2.34;100.00
25658;BME280;13517;59.320;18.042;2023-01-10T08:20:18;99939.72;;;2.35;100.00
25658;BME280;13517;59.320;18.042;2023-01-10T08:22:43;99982.66;;;2.49;100.00
25658;BME280;13517;59.320;18.042;2023-01-10T08:25:09;99966.78;;;2.46;100.00
25658;BME280;13517;59.320;18.042;2023-01-10T08:27:35;99965.00;;;2.47;100.00
25658;BME280;13517;59.320;18.042;2023-01-10T08:30:02;99942.25;;;2.38;100.00
25658;BME280;13517;59.320;18.042;2023-01-10T08:32:27;99954.28;;;2.48;100.00
25658;BME280;13517;59.320;18.042;2023-01-10T08:34:53;99978.38;;;2.66;100.00
25658;BME280;13517;59.320;18.042;2023-01-10T08:37:18;99962.78;;;2.56;100.00
25658;BME280;13517;59.320;18.042;2023-01-10T08:39:44;99986.31;;;2.67;100.00
25658;BME280;13517;59.320;18.042;2023-01-10T08:42:09;99991.44;;;2.72;100.00
25658;BME280;13517;59.320;18.042;2023-01-10T08:44:35;99967.84;;;2.63;100.00
25658;BME280;13517;59.320;18.042;2023-01-10T08:47:00;99955.91;;;2.51;100.00
25658;BME280;13517;59.320;18.042;2023-01-10T08:49:26;99975.91;;;2.61;100.00
25658;BME280;13517;59.320;18.042;2023-01-10T08:51:51;99985.50;;;2.65;100.00
25658;BME280;13517;59.320;18.042;2023-01-10T08:54:17;99999.28;;;2.75;100.00
25658;BME280;13517;59.320;18.042;2023-01-10T08:56:42;99995.06;;;2.71;100.00
25658;BME280;13517;59.320;18.042;2023-01-10T08:59:07;99962.25;;;2.48;100.00
25658;BME280;13517;59.320;18.042;2023-01-10T09:01:33;99995.06;;;2.71;100.00
25658;BME280;13517;59.320;18.042;2023-01-10T09:03:58;99963.00;;;2.52;100.00
25658;BME280;13517;59.320;18.042;2023-01-10T09:06:24;100028.03;;;2.89;100.00
25658;BME280;13517;59.320;18.042;2023-01-10T09:08:50;100029.03;;;2.86;100.00
25658;BME280;13517;59.320;18.042;2023-01-10T09:11:15;100033.19;;;2.94;100.00
25658;BME280;13517;59.320;18.042;2023-01-10T09:13:41;99997.56;;;2.74;100.00
25658;BME280;13517;59.320;18.042;2023-01-10T09:16:07;100018.38;;;2.86;100.00
25658;BME280;13517;59.320;18.042;2023-01-10T09:18:32;100041.31;;;2.91;100.00
25658;BME280;13517;59.320;18.042;2023-01-10T09:20:58;100050.66;;;3.01;100.00
25658;BME280;13517;59.320;18.042;2023-01-10T09:23:24;100024.72;;;2.84;100.00
25658;BME280;13517;59.320;18.042;2023-01-10T09:25:52;100050.72;;;2.99;100.00
25658;BME280;13517;59.320;18.042;2023-01-10T09:28:19;100044.53;;;2.99;100.00
25658;BME280;13517;59.320;18.042;2023-01-10T09:30:45;100040.91;;;3.00;100.00
25658;BME280;13517;59.320;18.042;2023-01-10T09:33:11;100046.31;;;2.98;100.00
25658;BME280;13517;59.320;18.042;2023-01-10T09:35:39;100057.03;;;2.97;100.00
25658;BME280;13517;59.320;18.042;2023-01-10T09:38:06;100036.91;;;2.90;100.00
25658;BME280;13517;59.320;18.042;2023-01-10T09:43:29;100078.53;;;3.15;100.00
25658;BME280;13517;59.320;18.042;2023-01-10T09:46:10;100075.06;;;3.12;100.00
25658;BME280;13517;59.320;18.042;2023-01-10T09:53:48;100091.72;;;3.18;100.00
25658;BME280;13517;59.320;18.042;2023-01-10T09:56:16;100099.66;;;3.19;100.00
25658;BME280;13517;59.320;18.042;2023-01-10T09:58:43;100089.88;;;3.20;100.00
25658;BME280;13517;59.320;18.042;2023-01-10T10:01:18;100102.41;;;3.18;100.00
25658;BME280;13517;59.320;18.042;2023-01-10T10:04:21;100102.41;;;3.18;100.00
25658;BME280;13517;59.320;18.042;2023-01-10T10:06:49;100058.72;;;2.99;100.00
25658;BME280;13517;59.320;18.042;2023-01-10T10:09:17;100096.00;;;3.22;100.00
25658;BME280;13517;59.320;18.042;2023-01-10T10:11:55;100104.75;;;3.25;100.00
25658;BME280;13517;59.320;18.042;2023-01-10T10:14:39;100105.75;;;3.23;100.00
25658;BME280;13517;59.320;18.042;2023-01-10T10:20:05;100107.53;;;3.22;100.00
25658;BME280;13517;59.320;18.042;2023-01-10T10:22:41;100114.47;;;3.26;100.00
25658;BME280;13517;59.320;18.042;2023-01-10T10:33:28;100102.13;;;3.24;100.00
25658;BME280;13517;59.320;18.042;2023-01-10T10:36:03;100111.38;;;3.36;100.00
25658;BME280;13517;59.320;18.042;2023-01-10T10:38:38;100102.75;;;3.31;100.00
25658;BME280;13517;59.320;18.042;2023-01-10T10:41:14;100117.75;;;3.33;100.00
25658;BME280;13517;59.320;18.042;2023-01-10T10:43:44;100118.75;;;3.31;100.00
25658;BME280;13517;59.320;18.042;2023-01-10T10:46:14;100142.44;;;3.38;100.00
25658;BME280;13517;59.320;18.042;2023-01-10T10:48:52;100147.75;;;3.38;100.00
25658;BME280;13517;59.320;18.042;2023-01-10T10:54:02;100150.44;;;3.38;100.00
25658;BME280;13517;59.320;18.042;2023-01-10T10:56:28;100128.97;;;3.21;100.00
25658;BME280;13517;59.320;18.042;2023-01-10T10:58:55;100153.25;;;3.35;100.00
25658;BME280;13517;59.320;18.042;2023-01-10T11:01:23;100156.88;;;3.34;100.00
25658;BME280;13517;59.320;18.042;2023-01-10T11:03:55;100150.84;;;3.29;100.00
25658;BME280;13517;59.320;18.042;2023-01-10T11:06:24;100117.09;;;3.07;100.00
25658;BME280;13517;59.320;18.042;2023-01-10T11:08:54;100137.19;;;3.16;100.00
25658;BME280;13517;59.320;18.042;2023-01-10T11:11:29;100128.28;;;3.16;100.00
25658;BME280;13517;59.320;18.042;2023-01-10T11:13:56;100150.06;;;3.27;100.00
25658;BME280;13517;59.320;18.042;2023-01-10T11:22:01;100157.88;;;3.32;100.00
25658;BME280;13517;59.320;18.042;2023-01-10T11:24:36;100142.97;;;3.26;100.00
25658;BME280;13517;59.320;18.042;2023-01-10T11:27:20;100139.50;;;3.24;100.00
25658;BME280;13517;59.320;18.042;2023-01-10T11:29:49;100111.34;;;3.17;100.00
25658;BME280;13517;59.320;18.042;2023-01-10T11:32:23;100107.47;;;3.03;100.00
25658;BME280;13517;59.320;18.042;2023-01-10T11:34:57;100125.41;;;3.20;100.00
25658;BME280;13517;59.320;18.042;2023-01-10T11:37:25;100158.72;;;3.32;100.00
25658;BME280;13517;59.320;18.042;2023-01-10T11:42:41;100150.13;;;3.25;100.00
25658;BME280;13517;59.320;18.042;2023-01-10T11:45:31;100149.25;;;3.25;100.00
25658;BME280;13517;59.320;18.042;2023-01-10T11:48:04;100143.09;;;3.23;100.00
25658;BME280;13517;59.320;18.042;2023-01-10T11:50:34;100154.25;;;3.33;100.00
25658;BME280;13517;59.320;18.042;2023-01-10T11:53:00;100133.22;;;3.25;100.00
25658;BME280;13517;59.320;18.042;2023-01-10T11:55:31;100143.06;;;3.24;100.00
25658;BME280;13517;59.320;18.042;2023-01-10T12:00:40;100163.94;;;3.35;100.00
25658;BME280;13517;59.320;18.042;2023-01-10T12:03:34;100158.06;;;3.27;100.00
25658;BME280;13517;59.320;18.042;2023-01-10T12:06:05;100172.00;;;3.34;100.00
25658;BME280;13517;59.320;18.042;2023-01-10T12:08:33;100167.41;;;3.37;100.00
25658;BME280;13517;59.320;18.042;2023-01-10T12:11:06;100126.78;;;3.10;100.00
25658;BME280;13517;59.320;18.042;2023-01-10T12:13:52;100169.38;;;3.32;100.00
25658;BME280;13517;59.320;18.042;2023-01-10T12:16:30;100167.53;;;3.34;100.00
25658;BME280;13517;59.320;18.042;2023-01-10T12:19:08;100136.31;;;3.16;100.00
25658;BME280;13517;59.320;18.042;2023-01-10T12:21:43;100168.34;;;3.36;100.00
25658;BME280;13517;59.320;18.042;2023-01-10T12:24:34;100181.69;;;3.36;100.00
25658;BME280;13517;59.320;18.042;2023-01-10T12:27:04;100159.75;;;3.30;100.00
25658;BME280;13517;59.320;18.042;2023-01-10T12:29:34;100144.00;;;3.23;100.00
25658;BME280;13517;59.320;18.042;2023-01-10T12:32:02;100177.97;;;3.40;100.00
25658;BME280;13517;59.320;18.042;2023-01-10T12:34:46;100165.66;;;3.36;100.00
25658;BME280;13517;59.320;18.042;2023-01-10T12:37:21;100162.25;;;3.33;100.00
25658;BME280;13517;59.320;18.042;2023-01-10T12:40:03;100177.97;;;3.40;100.00
25658;BME280;13517;59.320;18.042;2023-01-10T12:43:00;100201.63;;;3.48;100.00
25658;BME280;13517;59.320;18.042;2023-01-10T12:45:49;100207.72;;;3.52;100.00
25658;BME280;13517;59.320;18.042;2023-01-10T12:51:04;100200.69;;;3.49;100.00
25658;BME280;13517;59.320;18.042;2023-01-10T12:53:35;100203.97;;;3.56;100.00
25658;BME280;13517;59.320;18.042;2023-01-10T12:56:05;100186.34;;;3.52;100.00
25658;BME280;13517;59.320;18.042;2023-01-10T12:58:39;100198.75;;;3.53;100.00
25658;BME280;13517;59.320;18.042;2023-01-10T13:01:17;100192.69;;;3.49;100.00
25658;BME280;13517;59.320;18.042;2023-01-10T13:03:45;100181.16;;;3.49;100.00
25658;BME280;13517;59.320;18.042;2023-01-10T13:06:28;100207.19;;;3.64;100.00
25658;BME280;13517;59.320;18.042;2023-01-10T13:08:54;100183.72;;;3.50;100.00
25658;BME280;13517;59.320;18.042;2023-01-10T13:11:23;100190.75;;;3.53;100.00
25658;BME280;13517;59.320;18.042;2023-01-10T13:13:55;100178.59;;;3.46;100.00
25658;BME280;13517;59.320;18.042;2023-01-10T13:16:35;100204.84;;;3.57;100.00
25658;BME280;13517;59.320;18.042;2023-01-10T13:21:40;100191.47;;;3.57;100.00
25658;BME280;13517;59.320;18.042;2023-01-10T13:24:23;100223.06;;;3.67;100.00
25658;BME280;13517;59.320;18.042;2023-01-10T13:26:57;100224.72;;;3.70;100.00
25658;BME280;13517;59.320;18.042;2023-01-10T13:29:49;100237.34;;;3.66;100.00
25658;BME280;13517;59.320;18.042;2023-01-10T13:32:20;100240.69;;;3.72;100.00
25658;BME280;13517;59.320;18.042;2023-01-10T13:34:46;100201.59;;;3.50;100.00
25658;BME280;13517;59.320;18.042;2023-01-10T13:37:53;100236.25;;;3.72;100.00
25658;BME280;13517;59.320;18.042;2023-01-10T13:40:23;100195.63;;;3.43;100.00
25658;BME280;13517;59.320;18.042;2023-01-10T13:48:39;100256.56;;;3.75;100.00
25658;BME280;13517;59.320;18.042;2023-01-10T13:51:13;100253.25;;;3.70;100.00
25658;BME280;13517;59.320;18.042;2023-01-10T13:56:31;100262.06;;;3.72;100.00
25658;BME280;13517;59.320;18.042;2023-01-10T13:58:57;100234.31;;;3.55;100.00
25658;BME280;13517;59.320;18.042;2023-01-10T14:01:42;100252.59;;;3.64;100.00
25658;BME280;13517;59.320;18.042;2023-01-10T14:04:29;100253.53;;;3.63;100.00
25658;BME280;13517;59.320;18.042;2023-01-10T14:07:00;100262.06;;;3.72;100.00
25658;BME280;13517;59.320;18.042;2023-01-10T14:12:01;100255.38;;;3.61;100.00
25658;BME280;13517;59.320;18.042;2023-01-10T14:14:35;100253.66;;;3.60;100.00
25658;BME280;13517;59.320;18.042;2023-01-10T14:17:14;100285.13;;;3.74;100.00
25658;BME280;13517;59.320;18.042;2023-01-10T14:19:46;100250.19;;;3.58;100.00
25658;BME280;13517;59.320;18.042;2023-01-10T14:22:27;100278.84;;;3.75;100.00
25658;BME280;13517;59.320;18.042;2023-01-10T14:24:56;100263.06;;;3.69;100.00